Time,TemperatureF,DewpointF,PressureIn,WindDirection,WindDirectionDegrees,WindSpeedMPH,WindSpeedGustMPH,Humidity,HourlyPrecipIn,Conditions,Clouds,dailyrainin,SolarRadiationWatts/m^2,SoftwareType,DateUTC
2013-07-14 00:00:00,51.1,43.8,30.15,SW,221,0.0,0.0,76,0.00,CLR,OVC,0.00,0.0,WeatherDisplay:10.37,2013-07-13 22:00:00,
2013-07-14 00:10:00,50.7,43.4,30.15,SSW,212,0.0,0.0,76,0.00,CLR,OVC,0.00,0.0,WeatherDisplay:10.37,2013-07-13 22:10:00,
2013-07-14 00:20:00,50.4,43.4,30.15,WSW,246,0.0,0.0,77,0.00,CLR,OVC,0.00,0.0,WeatherDisplay:10.37,2013-07-13 22:20:00,
2013-07-14 00:30:00,50.2,43.2,30.15,WSW,247,0.0,0.0,77,0.00,CLR,OVC,0.00,0.0,WeatherDisplay:10.37,2013-07-13 22:30:00,
2013-07-14 00:40:00,50.2,43.2,30.15,SW,218,0.0,0.0,77,0.00,CLR,OVC,0.00,0.0,WeatherDisplay:10.37,2013-07-13 22:40:00,
2013-07-14 00:50:00,50.0,43.1,30.15,SSW,212,0.0,0.0,77,0.00,CLR,OVC,0.00,0.0,WeatherDisplay:10.37,2013-07-13 22:50:00,
2013-07-14 01:00:00,49.8,42.9,30.15,SW,226,0.0,0.0,77,0.00,CLR,OVC,0.00,0.0,WeatherDisplay:10.37,2013-07-13 23:00:00,
2013-07-14 01:10:00,50.0,43.4,30.15,SW,233,0.0,0.0,78,0.00,CLR,OVC,0.00,0.0,WeatherDisplay:10.37,2013-07-13 23:10:00,
2013-07-14 01:20:00,49.6,43.1,30.15,SSW,209,0.0,0.0,78,0.00,CLR,OVC,0.00,0.0,WeatherDisplay:10.37,2013-07-13 23:20:00,
2013-07-14 01:30:00,49.8,43.2,30.15,SSW,208,0.0,0.0,78,0.00,CLR,OVC,0.00,0.0,WeatherDisplay:10.37,2013-07-13 23:30:00,
2013-07-14 01:40:00,50.2,43.6,30.15,SW,217,0.0,0.0,78,0.00,CLR,OVC,0.00,0.0,WeatherDisplay:10.37,2013-07-13 23:40:00,
2013-07-14 01:50:00,50.5,43.9,30.15,SW,215,0.0,0.0,78,0.00,CLR,OVC,0.00,0.0,WeatherDisplay:10.37,2013-07-13 23:50:00,
2013-07-14 02:00:00,50.7,44.1,30.15,WSW,240,0.0,0.0,78,0.00,CLR,OVC,0.00,0.0,WeatherDisplay:10.37,2013-07-14 00:00:00,
2013-07-14 02:10:00,50.7,44.4,30.15,WSW,240,0.0,0.0,79,0.00,CLR,OVC,0.00,0.0,WeatherDisplay:10.37,2013-07-14 00:10:00,
2013-07-14 02:20:00,50.5,44.3,30.15,SW,222,0.0,0.0,79,0.00,CLR,OVC,0.00,0.0,WeatherDisplay:10.37,2013-07-14 00:20:00,
2013-07-14 02:30:00,50.2,43.9,30.15,SW,219,0.0,0.0,79,0.00,CLR,OVC,0.00,0.0,WeatherDisplay:10.37,2013-07-14 00:30:00,
2013-07-14 02:40:00,50.0,43.7,30.15,WSW,254,0.0,0.0,79,0.00,CLR,OVC,0.00,0.0,WeatherDisplay:10.37,2013-07-14 00:40:00,
2013-07-14 02:50:00,49.8,43.6,30.15,SW,218,0.0,0.0,79,0.00,CLR,OVC,0.00,0.0,WeatherDisplay:10.37,2013-07-14 00:50:00,
2013-07-14 03:00:00,49.6,43.4,30.15,SW,226,0.0,0.0,79,0.00,CLR,OVC,0.00,0.0,WeatherDisplay:10.37,2013-07-14 01:00:00,
2013-07-14 03:10:00,49.6,43.4,30.15,WSW,247,0.0,0.0,79,0.00,CLR,OVC,0.00,0.0,WeatherDisplay:10.37,2013-07-14 01:10:00,
2013-07-14 03:20:00,49.5,43.2,30.15,SW,235,0.0,0.0,79,0.00,CLR,OVC,0.00,0.0,WeatherDisplay:10.37,2013-07-14 01:20:00,
2013-07-14 03:30:00,49.5,43.2,30.15,SW,216,0.0,0.0,79,0.00,CLR,OVC,0.00,0.0,WeatherDisplay:10.37,2013-07-14 01:30:00,
2013-07-14 03:40:00,49.5,43.2,30.15,SW,226,0.0,0.0,79,0.00,CLR,OVC,0.00,0.0,WeatherDisplay:10.37,2013-07-14 01:40:00,
2013-07-14 03:50:00,49.5,43.5,30.15,SSW,199,0.0,0.0,80,0.00,CLR,OVC,0.00,0.0,WeatherDisplay:10.37,2013-07-14 01:50:00,
2013-07-14 04:00:00,49.3,43.0,30.15,SW,226,0.0,0.0,79,0.00,CLR,OVC,0.00,0.0,WeatherDisplay:10.37,2013-07-14 02:00:00,
2013-07-14 04:10:00,48.9,42.7,30.15,SSW,207,0.0,0.0,79,0.00,CLR,OVC,0.00,0.0,WeatherDisplay:10.37,2013-07-14 02:10:00,
2013-07-14 04:20:00,48.6,42.3,30.15,SSW,208,0.0,0.0,79,0.00,CLR,OVC,0.00,0.0,WeatherDisplay:10.37,2013-07-14 02:20:00,
2013-07-14 04:30:00,48.7,42.5,30.15,SSW,205,0.0,0.0,79,0.00,CLR,OVC,0.00,0.0,WeatherDisplay:10.37,2013-07-14 02:30:00,
2013-07-14 04:40:00,48.7,42.5,30.15,WNW,290,0.0,0.0,79,0.00,CLR,OVC,0.00,0.0,WeatherDisplay:10.37,2013-07-14 02:40:00,
2013-07-14 04:50:00,48.7,42.5,30.15,SW,226,0.0,0.0,79,0.00,CLR,OVC,0.00,0.0,WeatherDisplay:10.37,2013-07-14 02:50:00,
2013-07-14 05:00:00,48.7,42.5,30.15,SW,228,0.0,0.0,79,0.00,OVC,OVC,0.00,0.0,WeatherDisplay:10.37,2013-07-14 03:00:00,
2013-07-14 05:10:00,49.3,43.0,30.15,SSW,202,0.0,0.0,79,0.00,OVC,OVC,0.00,0.0,WeatherDisplay:10.37,2013-07-14 03:10:00,
2013-07-14 05:20:00,49.1,42.9,30.15,SW,234,0.0,0.0,79,0.00,OVC,OVC,0.00,0.0,WeatherDisplay:10.37,2013-07-14 03:20:00,
2013-07-14 05:30:00,49.1,42.9,30.15,SW,220,0.0,0.0,79,0.00,OVC,OVC,0.00,0.0,WeatherDisplay:10.37,2013-07-14 03:30:00,
2013-07-14 05:40:00,49.5,43.5,30.15,SW,222,0.0,0.0,80,0.00,OVC,OVC,0.00,0.0,WeatherDisplay:10.37,2013-07-14 03:40:00,
2013-07-14 05:50:00,49.3,43.0,30.18,SW,216,0.0,0.0,79,0.00,OVC,OVC,0.00,0.0,WeatherDisplay:10.37,2013-07-14 03:50:00,
2013-07-14 06:00:00,49.1,42.9,30.18,SW,228,0.0,0.0,79,0.00,OVC,OVC,0.00,0.0,WeatherDisplay:10.37,2013-07-14 04:00:00,
2013-07-14 06:10:00,49.5,43.5,30.15,SW,224,0.0,0.0,80,0.00,OVC,OVC,0.00,0.0,WeatherDisplay:10.37,2013-07-14 04:10:00,
2013-07-14 06:20:00,50.5,44.6,30.15,WSW,249,0.0,0.0,80,0.00,OVC,OVC,0.00,0.0,WeatherDisplay:10.37,2013-07-14 04:20:00,
2013-07-14 06:30:00,51.3,45.3,30.15,West,259,0.0,0.0,80,0.00,OVC,OVC,0.00,0.0,WeatherDisplay:10.37,2013-07-14 04:30:00,
2013-07-14 06:40:00,53.1,47.1,30.18,SW,235,0.0,0.0,80,0.00,OVC,OVC,0.00,0.0,WeatherDisplay:10.37,2013-07-14 04:40:00,
2013-07-14 06:50:00,54.7,48.3,30.18,SW,231,0.0,0.0,79,0.00,OVC,OVC,0.00,0.0,WeatherDisplay:10.37,2013-07-14 04:50:00,
2013-07-14 07:00:00,55.6,49.2,30.18,WSW,244,0.0,0.0,79,0.00,OVC,OVC,0.00,0.0,WeatherDisplay:10.37,2013-07-14 05:00:00,
2013-07-14 07:10:00,57.4,50.6,30.18,NNW,328,0.0,0.0,78,0.00,OVC,OVC,0.00,0.0,WeatherDisplay:10.37,2013-07-14 05:10:00,
2013-07-14 07:20:00,58.6,50.4,30.18,NNW,348,0.0,0.0,74,0.00,OVC,OVC,0.00,0.0,WeatherDisplay:10.37,2013-07-14 05:20:00,
2013-07-14 07:30:00,59.0,50.0,30.18,North,357,0.0,0.0,72,0.00,OVC,OVC,0.00,0.0,WeatherDisplay:10.37,2013-07-14 05:30:00,
2013-07-14 07:40:00,59.7,49.5,30.18,NNW,348,0.0,3.0,69,0.00,OVC,OVC,0.00,0.0,WeatherDisplay:10.37,2013-07-14 05:40:00,
2013-07-14 07:50:00,60.4,50.2,30.15,NNW,348,0.0,1.0,69,0.00,OVC,OVC,0.00,0.0,WeatherDisplay:10.37,2013-07-14 05:50:00,
2013-07-14 08:00:00,60.6,49.6,30.15,NNW,341,1.0,1.0,67,0.00,OVC,OVC,0.00,0.0,WeatherDisplay:10.37,2013-07-14 06:00:00,
2013-07-14 08:10:00,62.1,51.0,30.15,NW,320,2.0,2.0,67,0.00,OVC,OVC,0.00,0.0,WeatherDisplay:10.37,2013-07-14 06:10:00,
2013-07-14 08:20:00,63.0,51.4,30.15,NW,316,0.0,2.0,66,0.00,OVC,OVC,0.00,0.0,WeatherDisplay:10.37,2013-07-14 06:20:00,
2013-07-14 08:30:00,63.0,50.6,30.15,NW,325,3.0,3.0,64,0.00,OVC,OVC,0.00,0.0,WeatherDisplay:10.37,2013-07-14 06:30:00,
2013-07-14 08:40:00,64.6,52.1,30.15,WNW,299,0.0,3.0,64,0.00,OVC,OVC,0.00,0.0,WeatherDisplay:10.37,2013-07-14 06:40:00,
2013-07-14 08:50:00,65.1,51.3,30.18,WSW,257,6.0,6.0,61,0.00,OVC,OVC,0.00,0.0,WeatherDisplay:10.37,2013-07-14 06:50:00,
2013-07-14 09:00:00,65.3,51.5,30.18,WSW,250,5.0,6.0,61,0.00,OVC,OVC,0.00,0.0,WeatherDisplay:10.37,2013-07-14 07:00:00,
2013-07-14 09:10:00,65.7,51.4,30.18,West,269,6.0,6.0,60,0.00,OVC,OVC,0.00,0.0,WeatherDisplay:10.37,2013-07-14 07:10:00,
2013-07-14 09:20:00,66.0,52.2,30.18,NW,309,2.0,6.0,61,0.00,OVC,OVC,0.00,0.0,WeatherDisplay:10.37,2013-07-14 07:20:00,
2013-07-14 09:30:00,67.3,52.5,30.18,WNW,301,3.0,4.0,59,0.00,OVC,OVC,0.00,0.0,WeatherDisplay:10.37,2013-07-14 07:30:00,
2013-07-14 09:40:00,67.5,52.6,30.18,WNW,295,2.0,3.0,59,0.00,OVC,OVC,0.00,0.0,WeatherDisplay:10.37,2013-07-14 07:40:00,
2013-07-14 09:50:00,66.6,51.3,30.18,NW,314,7.0,7.0,58,0.00,OVC,OVC,0.00,0.0,WeatherDisplay:10.37,2013-07-14 07:50:00,
2013-07-14 10:00:00,68.0,53.1,30.18,NW,322,0.0,7.0,59,0.00,OVC,OVC,0.00,0.0,WeatherDisplay:10.37,2013-07-14 08:00:00,
2013-07-14 10:10:00,68.7,53.3,30.18,NNE,13,5.0,5.0,58,0.00,OVC,OVC,0.00,0.0,WeatherDisplay:10.37,2013-07-14 08:10:00,
2013-07-14 10:20:00,68.0,52.7,30.18,NNE,32,6.0,8.0,58,0.00,OVC,OVC,0.00,0.0,WeatherDisplay:10.37,2013-07-14 08:20:00,
2013-07-14 10:30:00,68.9,53.5,30.18,NNE,28,1.0,6.0,58,0.00,OVC,OVC,0.00,0.0,WeatherDisplay:10.37,2013-07-14 08:30:00,
2013-07-14 10:40:00,69.6,53.2,30.18,NNE,25,8.0,8.0,56,0.00,OVC,OVC,0.00,0.0,WeatherDisplay:10.37,2013-07-14 08:40:00,
2013-07-14 10:50:00,69.6,53.7,30.18,NNE,15,6.0,8.0,57,0.00,OVC,OVC,0.00,0.0,WeatherDisplay:10.37,2013-07-14 08:50:00,
2013-07-14 11:00:00,69.4,53.1,30.18,North,360,5.0,6.0,56,0.00,OVC,OVC,0.00,0.0,WeatherDisplay:10.37,2013-07-14 09:00:00,
2013-07-14 11:10:00,67.8,52.0,30.18,NNE,14,9.0,9.0,57,0.00,FEW,OVC,0.00,0.0,WeatherDisplay:10.37,2013-07-14 09:10:00,
2013-07-14 11:20:00,69.8,53.9,30.18,North,353,7.0,9.0,57,0.00,FEW,OVC,0.00,0.0,WeatherDisplay:10.37,2013-07-14 09:20:00,
2013-07-14 11:30:00,67.8,52.0,30.18,NNW,344,1.0,7.0,57,0.00,FEW,OVC,0.00,0.0,WeatherDisplay:10.37,2013-07-14 09:30:00,
2013-07-14 11:40:00,70.2,53.2,30.18,NNW,348,8.0,8.0,55,0.00,FEW,OVC,0.00,0.0,WeatherDisplay:10.37,2013-07-14 09:40:00,
2013-07-14 11:50:00,70.2,52.7,30.18,North,9,7.0,8.0,54,0.00,FEW,OVC,0.00,0.0,WeatherDisplay:10.37,2013-07-14 09:50:00,
2013-07-14 12:00:00,69.3,52.4,30.18,NNE,18,6.0,7.0,55,0.00,FEW,OVC,0.00,0.0,WeatherDisplay:10.37,2013-07-14 10:00:00,
2013-07-14 12:10:00,69.3,52.4,30.18,NNE,27,6.0,6.0,55,0.00,FEW,OVC,0.00,0.0,WeatherDisplay:10.37,2013-07-14 10:10:00,
2013-07-14 12:20:00,71.2,52.7,30.18,North,351,7.0,7.0,52,0.00,FEW,OVC,0.00,0.0,WeatherDisplay:10.37,2013-07-14 10:20:00,
2013-07-14 12:30:00,70.9,52.9,30.18,NNW,337,6.0,7.0,53,0.00,FEW,OVC,0.00,0.0,WeatherDisplay:10.37,2013-07-14 10:30:00,
2013-07-14 12:40:00,70.2,51.7,30.15,NNW,343,5.0,6.0,52,0.00,FEW,OVC,0.00,0.0,WeatherDisplay:10.37,2013-07-14 10:40:00,
2013-07-14 12:50:00,69.4,51.6,30.15,NNE,20,9.0,9.0,53,0.00,FEW,OVC,0.00,0.0,WeatherDisplay:10.37,2013-07-14 10:50:00,
2013-07-14 13:00:00,69.8,52.4,30.15,NNE,20,6.0,9.0,54,0.00,FEW,OVC,0.00,0.0,WeatherDisplay:10.37,2013-07-14 11:00:00,
2013-07-14 13:10:00,70.5,52.6,30.15,North,358,8.0,8.0,53,0.00,SCT,OVC,0.00,0.0,WeatherDisplay:10.37,2013-07-14 11:10:00,
2013-07-14 13:20:00,71.1,53.6,30.15,NNW,341,7.0,8.0,54,0.00,SCT,OVC,0.00,0.0,WeatherDisplay:10.37,2013-07-14 11:20:00,
2013-07-14 13:30:00,71.2,52.2,30.15,NNW,333,6.0,7.0,51,0.00,SCT,OVC,0.00,0.0,WeatherDisplay:10.37,2013-07-14 11:30:00,
2013-07-14 13:40:00,70.7,52.2,30.15,NNW,327,8.0,8.0,52,0.00,SCT,OVC,0.00,0.0,WeatherDisplay:10.37,2013-07-14 11:40:00,
2013-07-14 13:50:00,72.0,52.8,30.15,NNW,342,8.0,8.0,51,0.00,SCT,OVC,0.00,0.0,WeatherDisplay:10.37,2013-07-14 11:50:00,
2013-07-14 14:00:00,71.4,52.3,30.15,North,2,5.0,8.0,51,0.00,SCT,OVC,0.00,0.0,WeatherDisplay:10.37,2013-07-14 12:00:00,
2013-07-14 14:10:00,70.9,52.4,30.15,NNW,335,10.0,10.0,52,0.00,FEW,OVC,0.00,0.0,WeatherDisplay:10.37,2013-07-14 12:10:00,
2013-07-14 14:20:00,72.3,52.6,30.15,North,359,6.0,10.0,50,0.00,FEW,OVC,0.00,0.0,WeatherDisplay:10.37,2013-07-14 12:20:00,
2013-07-14 14:30:00,72.5,52.8,30.15,North,355,5.0,6.0,50,0.00,FEW,OVC,0.00,0.0,WeatherDisplay:10.37,2013-07-14 12:30:00,
2013-07-14 14:40:00,74.1,53.2,30.15,North,9,9.0,9.0,48,0.00,FEW,OVC,0.00,0.0,WeatherDisplay:10.37,2013-07-14 12:40:00,
2013-07-14 14:50:00,73.0,51.0,30.15,North,5,8.0,9.0,46,0.00,FEW,OVC,0.00,0.0,WeatherDisplay:10.37,2013-07-14 12:50:00,
2013-07-14 15:00:00,73.8,52.3,30.15,NNW,345,7.0,8.0,47,0.00,FEW,OVC,0.00,0.0,WeatherDisplay:10.37,2013-07-14 13:00:00,
2013-07-14 15:10:00,73.8,51.7,30.15,NNW,336,5.0,5.0,46,0.00,FEW,OVC,0.00,0.0,WeatherDisplay:10.37,2013-07-14 13:10:00,
2013-07-14 15:20:00,73.9,51.8,30.15,North,357,7.0,7.0,46,0.00,FEW,OVC,0.00,0.0,WeatherDisplay:10.37,2013-07-14 13:20:00,
2013-07-14 15:30:00,73.8,52.3,30.15,NNE,13,5.0,7.0,47,0.00,FEW,OVC,0.00,0.0,WeatherDisplay:10.37,2013-07-14 13:30:00,
2013-07-14 15:40:00,73.0,51.6,30.15,NNW,338,9.0,9.0,47,0.00,FEW,OVC,0.00,0.0,WeatherDisplay:10.37,2013-07-14 13:40:00,
2013-07-14 15:50:00,74.1,52.0,30.15,NW,310,8.0,9.0,46,0.00,FEW,OVC,0.00,0.0,WeatherDisplay:10.37,2013-07-14 13:50:00,
2013-07-14 16:00:00,74.8,53.3,30.15,NW,307,6.0,8.0,47,0.00,FEW,OVC,0.00,0.0,WeatherDisplay:10.37,2013-07-14 14:00:00,
2013-07-14 16:10:00,75.0,52.8,30.12,WSW,257,7.0,7.0,46,0.00,FEW,OVC,0.00,0.0,WeatherDisplay:10.37,2013-07-14 14:10:00,
2013-07-14 16:20:00,73.8,51.7,30.12,NW,324,7.0,7.0,46,0.00,FEW,OVC,0.00,0.0,WeatherDisplay:10.37,2013-07-14 14:20:00,
2013-07-14 16:30:00,74.1,52.0,30.12,NNW,348,7.0,7.0,46,0.00,FEW,OVC,0.00,0.0,WeatherDisplay:10.37,2013-07-14 14:30:00,
2013-07-14 16:40:00,73.9,53.0,30.12,NNW,346,7.0,7.0,48,0.00,FEW,OVC,0.00,0.0,WeatherDisplay:10.37,2013-07-14 14:40:00,
2013-07-14 16:50:00,72.9,52.6,30.12,NNW,348,7.0,8.0,49,0.00,FEW,OVC,0.00,0.0,WeatherDisplay:10.37,2013-07-14 14:50:00,
2013-07-14 17:00:00,73.2,52.9,30.12,North,349,7.0,7.0,49,0.00,FEW,OVC,0.00,0.0,WeatherDisplay:10.37,2013-07-14 15:00:00,
2013-07-14 17:10:00,74.5,53.5,30.12,North,350,6.0,8.0,48,0.00,FEW,OVC,0.00,0.0,WeatherDisplay:10.37,2013-07-14 15:10:00,
2013-07-14 17:20:00,74.1,52.6,30.12,North,0,8.0,8.0,47,0.00,FEW,OVC,0.00,0.0,WeatherDisplay:10.37,2013-07-14 15:20:00,
2013-07-14 17:30:00,74.3,53.3,30.12,NNW,342,6.0,8.0,48,0.00,FEW,OVC,0.00,0.0,WeatherDisplay:10.37,2013-07-14 15:30:00,
2013-07-14 17:40:00,75.6,52.1,30.12,NNW,347,3.0,6.0,44,0.00,FEW,OVC,0.00,0.0,WeatherDisplay:10.37,2013-07-14 15:40:00,
2013-07-14 17:50:00,74.8,52.1,30.12,NNE,16,6.0,6.0,45,0.00,FEW,OVC,0.00,0.0,WeatherDisplay:10.37,2013-07-14 15:50:00,
2013-07-14 18:00:00,74.5,52.3,30.12,North,10,7.0,7.0,46,0.00,FEW,OVC,0.00,0.0,WeatherDisplay:10.37,2013-07-14 16:00:00,
2013-07-14 18:10:00,73.8,52.8,30.12,NNW,345,3.0,5.0,48,0.00,OVC,OVC,0.00,0.0,WeatherDisplay:10.37,2013-07-14 16:10:00,
2013-07-14 18:20:00,74.8,53.8,30.12,North,357,8.0,8.0,48,0.00,OVC,OVC,0.00,0.0,WeatherDisplay:10.37,2013-07-14 16:20:00,
2013-07-14 18:30:00,73.4,53.1,30.12,North,0,3.0,8.0,49,0.00,OVC,OVC,0.00,0.0,WeatherDisplay:10.37,2013-07-14 16:30:00,
2013-07-14 18:40:00,72.3,52.6,30.12,North,7,8.0,8.0,50,0.00,OVC,OVC,0.00,0.0,WeatherDisplay:10.37,2013-07-14 16:40:00,
2013-07-14 18:50:00,72.3,53.2,30.12,NNW,337,3.0,8.0,51,0.00,OVC,OVC,0.00,0.0,WeatherDisplay:10.37,2013-07-14 16:50:00,
2013-07-14 19:00:00,72.3,53.2,30.12,NNW,338,6.0,6.0,51,0.00,OVC,OVC,0.00,0.0,WeatherDisplay:10.37,2013-07-14 17:00:00,
2013-07-14 19:10:00,70.5,52.6,30.12,North,354,7.0,7.0,53,0.00,OVC,OVC,0.00,0.0,WeatherDisplay:10.37,2013-07-14 17:10:00,
2013-07-14 19:20:00,69.6,52.2,30.12,NNE,31,5.0,7.0,54,0.00,OVC,OVC,0.00,0.0,WeatherDisplay:10.37,2013-07-14 17:20:00,
2013-07-14 19:30:00,69.1,52.2,30.12,NE,38,3.0,5.0,55,0.00,OVC,OVC,0.00,0.0,WeatherDisplay:10.37,2013-07-14 17:30:00,
2013-07-14 19:40:00,68.2,52.4,30.12,NNW,333,5.0,5.0,57,0.00,OVC,OVC,0.00,0.0,WeatherDisplay:10.37,2013-07-14 17:40:00,
2013-07-14 19:50:00,67.8,52.5,30.12,North,358,3.0,5.0,58,0.00,OVC,OVC,0.00,0.0,WeatherDisplay:10.37,2013-07-14 17:50:00,
2013-07-14 20:00:00,67.8,53.0,30.12,North,0,0.0,3.0,59,0.00,OVC,OVC,0.00,0.0,WeatherDisplay:10.37,2013-07-14 18:00:00,
2013-07-14 20:10:00,67.3,52.5,30.12,North,358,0.0,0.0,59,0.00,OVC,OVC,0.00,0.0,WeatherDisplay:10.37,2013-07-14 18:10:00,
2013-07-14 20:20:00,66.6,52.7,30.12,North,349,3.0,3.0,61,0.00,OVC,OVC,0.00,0.0,WeatherDisplay:10.37,2013-07-14 18:20:00,
2013-07-14 20:30:00,66.4,52.5,30.12,NNW,348,0.0,3.0,61,0.00,OVC,OVC,0.00,0.0,WeatherDisplay:10.37,2013-07-14 18:30:00,
2013-07-14 20:40:00,65.8,52.5,30.12,NNW,345,2.0,4.0,62,0.00,OVC,OVC,0.00,0.0,WeatherDisplay:10.37,2013-07-14 18:40:00,
2013-07-14 20:50:00,65.1,52.2,30.12,North,2,2.0,2.0,63,0.00,OVC,OVC,0.00,0.0,WeatherDisplay:10.37,2013-07-14 18:50:00,
2013-07-14 21:00:00,65.1,52.2,30.12,North,2,3.0,3.0,63,0.00,OVC,OVC,0.00,0.0,WeatherDisplay:10.37,2013-07-14 19:00:00,
2013-07-14 21:10:00,64.4,52.0,30.12,North,2,2.0,3.0,64,0.00,OVC,OVC,0.00,0.0,WeatherDisplay:10.37,2013-07-14 19:10:00,
2013-07-14 21:20:00,63.9,51.9,30.12,North,4,5.0,5.0,65,0.00,OVC,OVC,0.00,0.0,WeatherDisplay:10.37,2013-07-14 19:20:00,
2013-07-14 21:30:00,63.7,51.7,30.12,NNE,12,1.0,5.0,65,0.00,OVC,OVC,0.00,0.0,WeatherDisplay:10.37,2013-07-14 19:30:00,
2013-07-14 21:40:00,63.3,51.8,30.15,NNE,27,0.0,2.0,66,0.00,CLR,OVC,0.00,0.0,WeatherDisplay:10.37,2013-07-14 19:40:00,
2013-07-14 21:50:00,62.8,51.7,30.15,NNW,346,0.0,0.0,67,0.00,CLR,OVC,0.00,0.0,WeatherDisplay:10.37,2013-07-14 19:50:00,
2013-07-14 22:00:00,62.2,51.1,30.15,North,350,0.0,0.0,67,0.00,CLR,OVC,0.00,0.0,WeatherDisplay:10.37,2013-07-14 20:00:00,
2013-07-14 22:10:00,61.9,51.2,30.12,North,1,0.0,0.0,68,0.00,CLR,OVC,0.00,0.0,WeatherDisplay:10.37,2013-07-14 20:10:00,
2013-07-14 22:20:00,60.8,51.0,30.12,SW,231,0.0,0.0,70,0.00,CLR,OVC,0.00,0.0,WeatherDisplay:10.37,2013-07-14 20:20:00,
2013-07-14 22:30:00,60.1,50.6,30.12,WSW,240,0.0,0.0,71,0.00,CLR,OVC,0.00,0.0,WeatherDisplay:10.37,2013-07-14 20:30:00,
2013-07-14 22:40:00,59.0,50.4,30.12,WSW,240,0.0,0.0,73,0.00,CLR,OVC,0.00,0.0,WeatherDisplay:10.37,2013-07-14 20:40:00,
2013-07-14 22:50:00,58.5,50.2,30.12,WSW,240,0.0,0.0,74,0.00,CLR,OVC,0.00,0.0,WeatherDisplay:10.37,2013-07-14 20:50:00,
2013-07-14 23:00:00,58.3,50.0,30.12,WSW,240,0.0,0.0,74,0.00,CLR,OVC,0.00,0.0,WeatherDisplay:10.37,2013-07-14 21:00:00,
2013-07-14 23:10:00,57.9,50.0,30.12,WSW,245,0.0,0.0,75,0.00,CLR,OVC,0.00,0.0,WeatherDisplay:10.37,2013-07-14 21:10:00,
2013-07-14 23:20:00,57.9,50.4,30.12,WSW,237,0.0,0.0,76,0.00,CLR,OVC,0.00,0.0,WeatherDisplay:10.37,2013-07-14 21:20:00,
2013-07-14 23:30:00,57.7,50.2,30.12,SW,230,0.0,0.0,76,0.00,CLR,OVC,0.00,0.0,WeatherDisplay:10.37,2013-07-14 21:30:00,
2013-07-14 23:40:00,57.9,50.4,30.12,SW,230,0.0,0.0,76,0.00,CLR,OVC,0.00,0.0,WeatherDisplay:10.37,2013-07-14 21:40:00,
2013-07-14 23:50:00,57.7,50.6,30.15,SW,230,0.0,0.0,77,0.00,CLR,OVC,0.00,0.0,WeatherDisplay:10.37,2013-07-14 21:50:00,